createdAt,value
2019-05-04T00:00:36.843Z,80.43
2019-05-04T00:03:06.513Z,80.62
2019-05-04T00:05:37.808Z,80.24
2019-05-04T00:08:07.660Z,80.51
2019-05-04T00:10:37.299Z,80.19
2019-05-04T00:13:06.965Z,80.04
2019-05-04T00:15:36.328Z,79.75
2019-05-04T00:18:05.697Z,79.56
2019-05-04T00:20:35.353Z,79.78
2019-05-04T00:23:05.528Z,79.79
2019-05-04T00:25:35.375Z,79.73
2019-05-04T00:28:05.463Z,79.78
2019-05-04T00:30:35.255Z,79.97
2019-05-04T00:33:22.230Z,80.32
2019-05-04T00:35:54.980Z,80.60
2019-05-04T00:38:24.841Z,80.99
2019-05-04T00:40:55.734Z,80.92
2019-05-04T00:43:26.363Z,80.84
2019-05-04T00:45:55.725Z,81.11
2019-05-04T00:48:25.670Z,81.65
2019-05-04T00:50:55.641Z,81.79
2019-05-04T00:53:25.055Z,81.63
2019-05-04T00:55:57.047Z,81.79
2019-05-04T00:58:28.146Z,81.98
2019-05-04T01:01:01.750Z,81.95
2019-05-04T01:03:31.461Z,81.93
2019-05-04T01:06:01.473Z,82.03
2019-05-04T01:08:30.845Z,82.05
2019-05-04T01:11:00.511Z,82.17
2019-05-04T01:13:30.252Z,82.07
2019-05-04T01:15:59.815Z,82.07
2019-05-04T01:18:29.386Z,82.07
2019-05-04T01:20:59.796Z,82.05
2019-05-04T01:23:30.512Z,82.10
2019-05-04T01:25:59.880Z,82.24
2019-05-04T01:28:29.424Z,82.45
2019-05-04T01:30:59.815Z,82.51
2019-05-04T01:33:46.835Z,82.92
2019-05-04T01:36:18.407Z,83.31
2019-05-04T01:39:01.209Z,83.72
2019-05-04T01:41:39.909Z,83.97
2019-05-04T01:44:09.856Z,84.21
2019-05-04T01:46:39.491Z,84.25
2019-05-04T01:49:08.981Z,84.43
2019-05-04T01:51:38.453Z,84.48
2019-05-04T01:54:08.078Z,84.55
2019-05-04T01:56:39.215Z,84.70
2019-05-04T01:59:22.040Z,84.81
2019-05-04T02:01:51.990Z,84.86
2019-05-04T02:04:24.621Z,84.96
2019-05-04T02:06:55.377Z,85.03
2019-05-04T02:09:25.173Z,84.80
2019-05-04T02:11:55.215Z,84.64
2019-05-04T02:14:25.326Z,84.51
2019-05-04T02:16:55.862Z,84.52
2019-05-04T02:19:27.888Z,84.66
2019-05-04T02:21:58.254Z,84.65
2019-05-04T02:24:29.267Z,84.67
2019-05-04T02:27:01.495Z,84.70
2019-05-04T02:29:50.305Z,84.54
2019-05-04T02:32:25.943Z,84.73
2019-05-04T02:34:56.140Z,84.50
2019-05-04T02:37:27.934Z,84.37
2019-05-04T02:39:56.879Z,84.46
2019-05-04T02:42:27.462Z,84.39
2019-05-04T02:44:57.292Z,84.37
2019-05-04T02:47:40.304Z,84.29
2019-05-04T02:50:11.583Z,84.42
2019-05-04T02:52:40.953Z,84.41
2019-05-04T02:55:11.984Z,84.69
2019-05-04T02:57:41.653Z,84.78
2019-05-04T03:00:11.562Z,85.15
2019-05-04T03:02:40.934Z,85.31
2019-05-04T03:05:10.673Z,85.18
2019-05-04T03:07:40.286Z,85.44
2019-05-04T03:10:10.592Z,85.43
2019-05-04T03:12:40.298Z,85.26
2019-05-04T03:15:10.157Z,85.30
2019-05-04T03:17:41.333Z,85.47
2019-05-04T03:20:28.943Z,85.39
2019-05-04T03:23:00.237Z,85.42
2019-05-04T03:25:35.170Z,85.20
2019-05-04T03:28:06.327Z,85.16
2019-05-04T03:30:38.896Z,85.38
2019-05-04T03:33:08.916Z,85.30
2019-05-04T03:35:50.821Z,85.35
2019-05-04T03:38:10.174Z,85.42
2019-05-04T03:40:39.830Z,85.33
2019-05-04T03:43:10.108Z,85.34
2019-05-04T03:45:50.047Z,85.47
2019-05-04T03:48:30.008Z,85.56
2019-05-04T03:51:01.044Z,85.67
2019-05-04T03:53:30.696Z,85.74
2019-05-04T03:56:00.201Z,85.98
2019-05-04T03:58:29.746Z,86.26
2019-05-04T04:01:00.134Z,86.37
2019-05-04T04:03:30.125Z,86.45
2019-05-04T04:06:00.118Z,86.58
2019-05-04T04:08:30.068Z,86.57
2019-05-04T04:11:00.424Z,86.51
2019-05-04T04:13:29.824Z,86.90
2019-05-04T04:16:16.579Z,86.57
2019-05-04T04:18:45.930Z,86.24
2019-05-04T04:21:15.839Z,86.05
2019-05-04T04:23:55.867Z,86.07
2019-05-04T04:26:28.076Z,86.08
2019-05-04T04:28:59.415Z,86.19
2019-05-04T04:31:28.790Z,86.15
2019-05-04T04:34:01.694Z,86.50
2019-05-04T04:36:29.207Z,86.54
2019-05-04T04:39:00.257Z,86.71
2019-05-04T04:41:29.946Z,87.05
2019-05-04T04:44:00.217Z,87.29
2019-05-04T04:46:29.874Z,86.98
2019-05-04T04:49:00.137Z,87.03
2019-05-04T04:51:29.815Z,87.37
2019-05-04T04:54:00.230Z,87.66
2019-05-04T04:56:35.179Z,87.24
2019-05-04T04:59:11.658Z,85.88
2019-05-04T05:01:47.811Z,85.40
2019-05-04T05:04:15.190Z,84.88
2019-05-04T05:06:45.702Z,84.40
2019-05-04T05:09:15.498Z,84.00
2019-05-04T05:11:45.540Z,84.00
2019-05-04T05:14:15.206Z,84.20
2019-05-04T05:16:45.069Z,84.13
2019-05-04T05:19:15.213Z,84.37
2019-05-04T05:21:45.075Z,84.47
2019-05-04T05:24:15.103Z,84.81
2019-05-04T05:26:45.409Z,84.50
2019-05-04T05:29:15.404Z,84.59
2019-05-04T05:31:46.599Z,84.87
2019-05-04T05:34:20.255Z,85.06
2019-05-04T05:36:51.583Z,84.04
2019-05-04T05:39:21.068Z,83.37
2019-05-04T05:41:57.718Z,83.10
2019-05-04T05:44:24.880Z,83.48
2019-05-04T05:47:15.823Z,83.02
2019-05-04T05:49:45.353Z,82.66
2019-05-04T05:52:16.816Z,80.82
2019-05-04T05:55:05.830Z,80.82
2019-05-04T05:57:50.546Z,80.59
2019-05-04T06:00:21.969Z,80.05
2019-05-04T06:03:09.407Z,79.95
2019-05-04T06:05:40.721Z,79.38
2019-05-04T06:08:13.221Z,79.14
2019-05-04T06:10:44.118Z,78.21
2019-05-04T06:13:17.604Z,77.61
2019-05-04T06:16:01.005Z,78.95
2019-05-04T06:18:34.447Z,77.25
2019-05-04T06:21:10.873Z,74.99
2019-05-04T06:23:41.894Z,73.70
2019-05-04T06:26:26.407Z,73.73
2019-05-04T06:29:10.815Z,74.52
2019-05-04T06:31:58.028Z,70.71
2019-05-04T06:34:40.531Z,71.18
2019-05-04T06:37:15.214Z,72.09
2019-05-04T06:39:52.166Z,72.09
2019-05-04T06:42:26.084Z,70.87
2019-05-04T06:45:06.394Z,70.23
2019-05-04T06:47:34.706Z,69.00
2019-05-04T06:50:08.011Z,68.95
2019-05-04T06:52:39.004Z,68.87
2019-05-04T06:55:25.158Z,68.10
2019-05-04T06:58:05.179Z,67.60
2019-05-04T07:00:36.821Z,66.99
2019-05-04T07:03:09.568Z,67.38
2019-05-04T07:05:37.540Z,68.09
2019-05-04T07:08:09.382Z,67.84
2019-05-04T07:10:56.714Z,68.26
2019-05-04T07:13:16.816Z,68.26
2019-05-04T07:15:40.834Z,68.24
2019-05-04T07:18:10.530Z,68.42
2019-05-04T07:20:41.543Z,67.13
2019-05-04T07:23:17.263Z,67.47
2019-05-04T07:25:49.422Z,67.63
2019-05-04T07:28:14.413Z,67.24
2019-05-04T07:30:45.494Z,67.61
2019-05-04T07:33:17.864Z,66.96
2019-05-04T07:35:54.904Z,66.46
2019-05-04T07:38:48.743Z,66.38
2019-05-04T07:41:38.970Z,65.85
2019-05-04T07:43:47.534Z,65.21
2019-05-04T07:46:16.895Z,65.21
2019-05-04T07:48:49.028Z,65.17
2019-05-04T07:51:17.673Z,66.26
2019-05-04T07:53:50.486Z,66.26
2019-05-04T07:56:19.016Z,64.51
2019-05-04T07:58:48.426Z,64.51
2019-05-04T08:01:19.278Z,61.85
2019-05-04T08:03:48.941Z,62.17
2019-05-04T08:06:19.602Z,62.43
2019-05-04T08:08:57.948Z,60.84
2019-05-04T08:11:25.105Z,60.73
2019-05-04T08:13:58.956Z,59.45
2019-05-04T08:16:26.407Z,58.31
2019-05-04T08:19:00.431Z,56.56
2019-05-04T08:21:26.855Z,57.48
2019-05-04T08:23:56.849Z,58.52
2019-05-04T08:26:29.796Z,55.48
2019-05-04T08:28:57.818Z,55.55
2019-05-04T08:31:30.164Z,55.41
2019-05-04T08:33:58.995Z,54.00
2019-05-04T08:36:29.703Z,54.00
2019-05-04T08:38:59.324Z,53.22
2019-05-04T08:41:34.021Z,53.96
2019-05-04T08:44:12.055Z,54.38
2019-05-04T08:46:40.024Z,53.92
2019-05-04T08:49:11.922Z,54.35
2019-05-04T08:51:51.342Z,53.52
2019-05-04T08:54:18.901Z,55.13
2019-05-04T08:56:47.575Z,55.22
2019-05-04T08:59:20.306Z,55.44
2019-05-04T09:01:58.598Z,54.89
2019-05-04T09:04:29.339Z,53.60
2019-05-04T09:07:04.653Z,52.47
2019-05-04T09:09:30.743Z,51.46
2019-05-04T09:12:17.915Z,50.00
2019-05-04T09:14:37.179Z,50.00
2019-05-04T09:17:09.803Z,47.90
2019-05-04T09:19:36.449Z,48.35
2019-05-04T09:22:21.305Z,48.97
2019-05-04T09:24:38.870Z,46.87
2019-05-04T09:27:09.053Z,47.19
2019-05-04T09:29:38.971Z,46.30
2019-05-04T09:32:09.765Z,46.82
2019-05-04T09:34:39.710Z,46.83
2019-05-04T09:37:13.616Z,46.83
2019-05-04T09:39:40.157Z,49.38
2019-05-04T09:42:11.457Z,50.80
2019-05-04T09:44:41.110Z,50.09
2019-05-04T09:47:12.152Z,53.91
2019-05-04T09:49:42.647Z,56.00
2019-05-04T09:52:20.025Z,58.07
2019-05-04T09:54:54.276Z,58.07
2019-05-04T09:57:20.670Z,59.44
2019-05-04T10:00:00.114Z,59.90
2019-05-04T10:02:21.115Z,60.89
2019-05-04T10:04:50.735Z,61.56
2019-05-04T10:07:20.419Z,61.49
2019-05-04T10:09:49.784Z,62.45
2019-05-04T10:12:20.800Z,64.12
2019-05-04T10:14:54.462Z,65.41
2019-05-04T10:17:25.523Z,66.98
2019-05-04T10:19:54.892Z,69.39
2019-05-04T10:22:24.942Z,69.01
2019-05-04T10:24:54.687Z,69.01
2019-05-04T10:27:28.520Z,69.78
2019-05-04T10:29:58.865Z,69.92
2019-05-04T10:32:34.597Z,68.39
2019-05-04T10:35:05.885Z,66.55
2019-05-04T10:37:35.545Z,62.61
2019-05-04T10:40:06.564Z,62.33
2019-05-04T10:42:35.969Z,60.34
2019-05-04T10:45:06.156Z,58.62
2019-05-04T10:47:36.100Z,57.57
2019-05-04T10:50:08.111Z,56.42
2019-05-04T10:52:37.770Z,56.42
2019-05-04T10:55:07.622Z,54.70
2019-05-04T10:57:37.262Z,54.24
2019-05-04T11:00:09.613Z,55.86
2019-05-04T11:02:39.253Z,54.23
2019-05-04T11:05:09.057Z,57.26
2019-05-04T11:07:38.733Z,57.54
2019-05-04T11:10:08.554Z,57.00
2019-05-04T11:12:37.917Z,58.52
2019-05-04T11:15:07.780Z,60.32
2019-05-04T11:17:37.148Z,63.15
2019-05-04T11:20:07.203Z,64.07
2019-05-04T11:22:36.845Z,63.94
2019-05-04T11:25:08.480Z,66.01
2019-05-04T11:27:37.859Z,69.21
2019-05-04T11:30:07.394Z,71.71
2019-05-04T11:32:36.951Z,74.39
2019-05-04T11:35:06.394Z,76.03
2019-05-04T11:37:35.927Z,77.58
2019-05-04T11:40:07.704Z,79.51
2019-05-04T11:42:37.069Z,80.08
2019-05-04T11:45:07.121Z,80.92
2019-05-04T11:47:36.476Z,81.65
2019-05-04T11:50:06.723Z,82.36
2019-05-04T11:52:36.063Z,83.06
2019-05-04T11:55:08.732Z,82.60
2019-05-04T11:57:36.933Z,82.95
2019-05-04T12:00:08.575Z,82.73
2019-05-04T12:02:38.104Z,81.14
2019-05-04T12:05:18.108Z,80.80
2019-05-04T12:07:49.245Z,81.17
2019-05-04T12:10:38.752Z,82.01
2019-05-04T12:13:08.515Z,81.39
2019-05-04T12:15:37.940Z,79.04
2019-05-04T12:18:07.348Z,77.49
2019-05-04T12:20:36.989Z,74.06
2019-05-04T12:23:06.377Z,73.02
2019-05-04T12:25:36.019Z,72.67
2019-05-04T12:28:05.663Z,69.12
2019-05-04T12:30:35.352Z,67.31
2019-05-04T12:33:05.358Z,67.38
2019-05-04T12:35:35.049Z,65.55
2019-05-04T12:38:06.291Z,65.06
2019-05-04T12:40:35.465Z,66.11
2019-05-04T12:43:05.987Z,66.57
2019-05-04T12:45:35.464Z,67.37
2019-05-04T12:48:05.165Z,66.01
2019-05-04T12:50:34.521Z,65.82
2019-05-04T12:53:04.190Z,66.49
2019-05-04T12:55:34.344Z,68.05
2019-05-04T12:58:05.256Z,70.07
2019-05-04T13:00:36.292Z,70.69
2019-05-04T13:03:05.676Z,70.47
2019-05-04T13:05:35.239Z,69.79
2019-05-04T13:08:05.947Z,70.71
2019-05-04T13:10:35.356Z,72.52
2019-05-04T13:13:05.354Z,73.69
2019-05-04T13:15:35.142Z,73.94
2019-05-04T13:18:06.830Z,74.51
2019-05-04T13:20:36.197Z,74.28
2019-05-04T13:23:05.606Z,75.01
2019-05-04T13:25:35.207Z,74.93
2019-05-04T13:28:05.263Z,75.05
2019-05-04T13:30:35.238Z,75.03
2019-05-04T13:33:05.925Z,74.51
2019-05-04T13:35:35.348Z,74.87
2019-05-04T13:38:05.676Z,74.87
2019-05-04T13:40:35.325Z,74.63
2019-05-04T13:43:06.660Z,74.63
2019-05-04T13:45:36.201Z,73.07
2019-05-04T13:48:05.562Z,72.69
2019-05-04T13:50:35.529Z,71.02
2019-05-04T13:53:04.906Z,68.41
2019-05-04T13:55:38.593Z,69.40
2019-05-04T13:58:18.823Z,69.97
2019-05-04T14:00:49.886Z,67.38
2019-05-04T14:03:26.986Z,65.98
2019-05-04T14:05:57.373Z,65.76
2019-05-04T14:08:26.748Z,67.85
2019-05-04T14:10:56.326Z,66.68
2019-05-04T14:13:25.681Z,66.53
2019-05-04T14:15:55.538Z,66.97
2019-05-04T14:18:28.259Z,66.81
2019-05-04T14:20:57.767Z,67.09
2019-05-04T14:23:27.434Z,69.30
2019-05-04T14:25:56.812Z,69.29
2019-05-04T14:28:26.356Z,67.82
2019-05-04T14:30:55.984Z,63.71
2019-05-04T14:33:25.368Z,62.42
2019-05-04T14:35:55.693Z,62.86
2019-05-04T14:38:25.371Z,60.48
2019-05-04T14:40:55.091Z,58.72
2019-05-04T14:43:27.283Z,57.63
2019-05-04T14:45:58.296Z,57.02
2019-05-04T14:48:32.007Z,58.56
2019-05-04T14:51:01.855Z,60.59
2019-05-04T14:53:31.498Z,60.37
2019-05-04T14:56:01.805Z,61.90
2019-05-04T14:58:31.420Z,62.24
2019-05-04T15:01:04.372Z,62.61
2019-05-04T15:03:34.371Z,62.80
2019-05-04T15:06:04.979Z,64.05
2019-05-04T15:08:34.780Z,63.74
2019-05-04T15:11:04.442Z,63.63
2019-05-04T15:13:34.255Z,62.69
2019-05-04T15:16:05.325Z,55.98
2019-05-04T15:18:51.333Z,57.25
2019-05-04T15:21:15.050Z,60.82
2019-05-04T15:23:44.646Z,63.27
2019-05-04T15:26:13.999Z,64.41
2019-05-04T15:28:44.733Z,66.59
2019-05-04T15:31:14.520Z,67.55
2019-05-04T15:33:45.139Z,68.63
2019-05-04T15:36:14.954Z,68.66
2019-05-04T15:38:44.581Z,70.75
2019-05-04T15:41:14.818Z,70.75
2019-05-04T15:43:44.819Z,72.35
2019-05-04T15:46:15.181Z,72.35
2019-05-04T15:48:44.893Z,72.59
2019-05-04T15:51:25.033Z,73.61
2019-05-04T15:53:56.243Z,74.60
2019-05-04T15:56:27.263Z,74.60
2019-05-04T15:58:58.255Z,73.34
2019-05-04T16:01:27.927Z,72.39
2019-05-04T16:03:57.547Z,72.60
2019-05-04T16:06:26.925Z,72.33
2019-05-04T16:08:56.638Z,71.19
2019-05-04T16:11:26.007Z,71.19
2019-05-04T16:13:55.560Z,71.65
2019-05-04T16:16:24.918Z,70.37
2019-05-04T16:18:54.573Z,69.61
2019-05-04T16:21:24.712Z,69.35
2019-05-04T16:23:54.803Z,68.43
2019-05-04T16:26:24.884Z,68.50
2019-05-04T16:28:54.974Z,67.08
2019-05-04T16:31:26.616Z,66.76
2019-05-04T16:33:55.973Z,65.07
2019-05-04T16:36:25.621Z,67.10
2019-05-04T16:38:55.422Z,67.10
2019-05-04T16:41:26.383Z,67.18
2019-05-04T16:43:55.906Z,66.76
2019-05-04T16:46:26.403Z,67.98
2019-05-04T16:48:56.892Z,67.99
2019-05-04T16:51:28.537Z,66.55
2019-05-04T16:53:57.920Z,66.55
2019-05-04T16:56:27.612Z,66.66
2019-05-04T16:58:57.218Z,66.36
2019-05-04T17:01:35.606Z,67.00
2019-05-04T17:04:13.534Z,67.01
2019-05-04T17:06:44.205Z,67.49
2019-05-04T17:09:14.906Z,68.23
2019-05-04T17:11:46.580Z,67.36
2019-05-04T17:14:16.255Z,68.11
2019-05-04T17:16:45.665Z,71.65
2019-05-04T17:19:19.678Z,71.65
2019-05-04T17:22:06.612Z,74.35
2019-05-04T17:24:41.405Z,74.35
2019-05-04T17:27:12.694Z,74.82
2019-05-04T17:29:44.313Z,74.70
2019-05-04T17:32:15.003Z,74.93
2019-05-04T17:34:45.325Z,76.11
2019-05-04T17:37:19.116Z,76.11
2019-05-04T17:39:52.477Z,77.47
2019-05-04T17:42:24.725Z,77.47
2019-05-04T17:44:56.313Z,77.98
2019-05-04T17:47:25.775Z,78.46
2019-05-04T17:49:55.385Z,78.46
2019-05-04T17:52:24.813Z,78.58
2019-05-04T17:54:54.943Z,78.75
2019-05-04T17:57:25.342Z,79.06
2019-05-04T17:59:56.762Z,79.42
2019-05-04T18:02:30.723Z,79.42
2019-05-04T18:05:01.569Z,79.58
2019-05-04T18:07:30.929Z,79.91
2019-05-04T18:10:00.300Z,79.83
2019-05-04T18:12:31.505Z,79.69
2019-05-04T18:15:20.602Z,79.69
2019-05-04T18:17:51.855Z,80.07
2019-05-04T18:20:21.293Z,80.55
2019-05-04T18:22:51.142Z,80.05
2019-05-04T18:25:20.818Z,80.05
2019-05-04T18:27:50.173Z,80.02
2019-05-04T18:30:24.874Z,80.51
2019-05-04T18:32:54.411Z,81.09
2019-05-04T18:35:24.107Z,81.66
2019-05-04T18:37:54.212Z,81.66
2019-05-04T18:40:26.813Z,81.79
2019-05-04T18:42:57.855Z,81.74
2019-05-04T18:45:44.125Z,81.63
2019-05-04T18:48:32.377Z,81.55
2019-05-04T18:51:02.036Z,81.59
2019-05-04T18:53:34.868Z,81.59
2019-05-04T18:56:04.606Z,81.53
2019-05-04T18:58:35.608Z,81.46
2019-05-04T19:01:05.644Z,81.37
2019-05-04T19:03:35.347Z,81.28
2019-05-04T19:06:16.041Z,81.15
2019-05-04T19:08:54.791Z,81.00
2019-05-04T19:11:44.407Z,81.09
2019-05-04T19:14:41.404Z,81.38
2019-05-04T19:17:16.198Z,81.28
2019-05-04T19:19:45.840Z,81.04
2019-05-04T19:22:15.203Z,81.11
2019-05-04T19:24:49.370Z,81.24
2019-05-04T19:27:18.821Z,81.43
2019-05-04T19:29:48.208Z,81.69
2019-05-04T19:32:17.773Z,81.96
2019-05-04T19:34:47.168Z,82.19
2019-05-04T19:37:16.823Z,82.62
2019-05-04T19:39:46.472Z,82.88
2019-05-04T19:42:36.083Z,83.36
2019-05-04T19:45:20.567Z,83.55
2019-05-04T19:47:49.936Z,83.64
2019-05-04T19:50:19.299Z,83.79
2019-05-04T19:52:49.291Z,83.91
2019-05-04T19:55:18.993Z,83.99
2019-05-04T19:57:49.827Z,84.15
2019-05-04T20:00:39.418Z,84.64
2019-05-04T20:03:11.454Z,84.99
2019-05-04T20:05:41.143Z,85.19
2019-05-04T20:08:15.050Z,85.35
2019-05-04T20:10:48.848Z,85.38
2019-05-04T20:13:18.221Z,85.37
2019-05-04T20:15:48.452Z,85.27
2019-05-04T20:18:18.214Z,85.51
2019-05-04T20:20:48.139Z,85.97
2019-05-04T20:23:17.496Z,86.23
2019-05-04T20:25:47.078Z,86.27
2019-05-04T20:28:16.458Z,86.14
2019-05-04T20:30:45.956Z,86.01
2019-05-04T20:33:15.401Z,86.03
2019-05-04T20:35:46.145Z,86.23
2019-05-04T20:38:16.597Z,86.44
2019-05-04T20:40:46.096Z,86.42
2019-05-04T20:43:15.770Z,86.41
2019-05-04T20:45:46.775Z,86.53
2019-05-04T20:48:18.076Z,86.69
2019-05-04T20:50:47.429Z,86.92
2019-05-04T20:53:24.598Z,87.02
2019-05-04T20:55:54.217Z,87.15
2019-05-04T20:58:24.471Z,87.15
2019-05-04T21:00:54.401Z,87.22
2019-05-04T21:03:25.755Z,87.34
2019-05-04T21:06:04.617Z,87.47
2019-05-04T21:08:34.311Z,87.42
2019-05-04T21:11:04.393Z,87.39
2019-05-04T21:13:35.279Z,87.33
2019-05-04T21:16:05.150Z,87.29
2019-05-04T21:18:41.819Z,87.30
2019-05-04T21:21:15.227Z,87.40
2019-05-04T21:23:45.067Z,87.52
2019-05-04T21:26:14.957Z,87.59
2019-05-04T21:28:44.715Z,87.67
2019-05-04T21:31:14.980Z,87.71
2019-05-04T21:33:44.820Z,87.74
2019-05-04T21:36:14.954Z,89.64
2019-05-04T21:38:44.989Z,89.92
2019-05-04T21:41:14.694Z,88.59
2019-05-04T21:43:45.954Z,87.35
2019-05-04T21:46:34.905Z,87.35
2019-05-04T21:49:21.963Z,87.14
2019-05-04T21:51:51.339Z,87.21
2019-05-04T21:54:20.698Z,87.41
2019-05-04T21:56:50.141Z,87.50
2019-05-04T21:59:19.516Z,87.60
2019-05-04T22:01:54.958Z,87.64
2019-05-04T22:04:26.009Z,87.64
2019-05-04T22:06:55.581Z,87.89
2019-05-04T22:09:26.614Z,87.94
2019-05-04T22:11:56.180Z,88.05
2019-05-04T22:14:26.528Z,88.14
2019-05-04T22:16:56.487Z,88.14
2019-05-04T22:19:26.668Z,88.28
2019-05-04T22:21:56.535Z,88.32
2019-05-04T22:24:26.657Z,88.27
2019-05-04T22:26:56.203Z,88.22
2019-05-04T22:29:26.568Z,88.09
2019-05-04T22:31:56.237Z,87.99
2019-05-04T22:34:27.285Z,87.92
2019-05-04T22:36:58.303Z,87.88
2019-05-04T22:39:28.631Z,87.92
2019-05-04T22:41:58.328Z,87.99
2019-05-04T22:44:27.971Z,88.10
2019-05-04T22:46:57.490Z,88.11
2019-05-04T22:49:26.891Z,88.16
2019-05-04T22:52:11.699Z,88.11
2019-05-04T22:54:41.166Z,88.25
2019-05-04T22:57:12.163Z,88.25
2019-05-04T22:59:46.367Z,87.79
2019-05-04T23:02:20.005Z,87.79
2019-05-04T23:04:57.029Z,88.23
2019-05-04T23:07:26.889Z,88.20
2019-05-04T23:09:56.542Z,88.26
2019-05-04T23:12:26.697Z,88.16
2019-05-04T23:14:56.399Z,88.07
2019-05-04T23:17:26.787Z,88.11
2019-05-04T23:19:56.455Z,88.14
2019-05-04T23:22:28.510Z,88.11
2019-05-04T23:24:57.872Z,88.19
2019-05-04T23:27:27.549Z,88.11
2019-05-04T23:29:56.911Z,88.02
2019-05-04T23:32:26.848Z,88.03
2019-05-04T23:34:56.561Z,88.10
2019-05-04T23:37:26.972Z,88.24
2019-05-04T23:39:56.513Z,88.40
2019-05-04T23:42:26.845Z,88.47
2019-05-04T23:44:56.473Z,88.58
2019-05-04T23:47:28.455Z,88.54
2019-05-04T23:49:57.813Z,88.55
2019-05-04T23:52:27.494Z,88.60
2019-05-04T23:54:56.860Z,88.63
2019-05-04T23:57:26.885Z,88.58
2019-05-04T23:59:56.538Z,88.55
